createdAt,value
2018-05-03T00:01:15.530Z,100734.50
2018-05-03T00:03:46.011Z,100737.97
2018-05-03T00:06:16.414Z,100747.77
2018-05-03T00:08:46.721Z,100739.69
2018-05-03T00:11:17.369Z,100749.36
2018-05-03T00:13:48.026Z,100748.21
2018-05-03T00:16:19.737Z,100742.09
2018-05-03T00:18:50.416Z,100744.25
2018-05-03T00:21:22.524Z,100746.78
2018-05-03T00:23:53.059Z,100750.09
2018-05-03T00:26:23.851Z,100749.88
2018-05-03T00:28:54.331Z,100749.20
2018-05-03T00:31:25.367Z,100742.73
2018-05-03T00:34:09.217Z,100748.09
2018-05-03T00:36:40.052Z,100749.44
2018-05-03T00:39:11.183Z,100753.45
2018-05-03T00:41:41.531Z,100754.56
2018-05-03T00:44:11.910Z,100757.41
2018-05-03T00:46:43.092Z,100755.73
2018-05-03T00:49:13.275Z,100757.08
2018-05-03T00:51:43.521Z,100757.77
2018-05-03T00:54:22.789Z,100773.94
2018-05-03T00:56:53.056Z,100764.18
2018-05-03T00:59:23.730Z,100753.72
2018-05-03T01:01:54.982Z,100763.95
2018-05-03T01:04:25.460Z,100767.05
2018-05-03T01:06:55.790Z,100769.84
2018-05-03T01:09:26.148Z,100773.07
2018-05-03T01:11:56.683Z,100771.23
2018-05-03T01:14:27.255Z,100768.55
2018-05-03T01:23:39.999Z,100765.18
2018-05-03T01:26:10.341Z,100766.56
2018-05-03T01:28:41.161Z,100775.25
2018-05-03T01:31:11.675Z,100774.75
2018-05-03T01:33:42.092Z,100781.56
2018-05-03T01:36:24.214Z,100780.20
2018-05-03T01:38:58.000Z,100776.09
2018-05-03T01:41:28.610Z,100782.38
2018-05-03T01:44:00.504Z,100785.33
2018-05-03T01:46:34.222Z,100780.85
2018-05-03T01:49:05.846Z,100799.66
2018-05-03T01:51:36.324Z,100804.03
2018-05-03T01:54:06.777Z,100801.16
2018-05-03T01:56:37.033Z,100807.86
2018-05-03T01:59:08.287Z,100798.98
2018-05-03T02:01:38.795Z,100799.81
2018-05-03T02:04:09.327Z,100812.23
2018-05-03T02:06:40.001Z,100817.50
2018-05-03T02:09:10.696Z,100825.40
2018-05-03T02:11:41.315Z,100818.00
2018-05-03T02:14:12.574Z,100817.31
2018-05-03T02:16:43.045Z,100815.58
2018-05-03T02:19:13.332Z,100821.62
2018-05-03T02:21:43.461Z,100826.70
2018-05-03T02:24:13.677Z,100828.88
2018-05-03T02:26:43.958Z,100838.93
2018-05-03T02:29:14.876Z,100847.69
2018-05-03T02:31:45.295Z,100841.06
2018-05-03T02:34:15.721Z,100855.09
2018-05-03T02:36:45.992Z,100859.12
2018-05-03T02:39:16.359Z,100863.94
2018-05-03T02:41:46.639Z,100868.25
2018-05-03T02:44:16.803Z,100870.95
2018-05-03T02:46:47.568Z,100861.63
2018-05-03T02:49:38.871Z,100867.69
2018-05-03T02:52:10.361Z,100875.38
2018-05-03T02:54:40.978Z,100874.53
2018-05-03T02:57:22.847Z,100879.97
2018-05-03T03:00:06.088Z,100892.00
2018-05-03T03:03:52.173Z,100895.17
2018-05-03T03:07:33.960Z,100893.16
2018-05-03T03:12:17.100Z,100902.86
2018-05-03T03:17:09.066Z,100916.67
2018-05-03T03:19:49.399Z,100920.43
2018-05-03T03:24:40.852Z,100922.87
2018-05-03T03:27:26.658Z,100922.78
2018-05-03T03:34:24.406Z,100926.82
2018-05-03T03:37:07.658Z,100937.85
2018-05-03T03:39:49.223Z,100947.31
2018-05-03T03:42:27.160Z,100952.13
2018-05-03T03:44:58.046Z,100957.59
2018-05-03T03:47:33.704Z,100960.17
2018-05-03T03:50:05.133Z,100961.87
2018-05-03T03:52:35.920Z,100966.16
2018-05-03T03:55:06.138Z,100968.20
2018-05-03T03:57:36.147Z,100969.37
2018-05-03T04:00:09.136Z,100971.02
2018-05-03T04:02:39.353Z,100966.63
2018-05-03T04:05:09.844Z,100972.26
2018-05-03T04:07:40.782Z,100977.51
2018-05-03T04:10:15.405Z,100980.89
2018-05-03T04:12:45.874Z,100963.41
2018-05-03T04:15:17.754Z,100988.63
2018-05-03T04:17:57.195Z,100994.02
2018-05-03T04:22:41.433Z,100991.77
2018-05-03T04:26:21.177Z,101001.12
2018-05-03T04:28:51.547Z,100997.43
2018-05-03T04:31:22.288Z,101002.66
2018-05-03T04:33:52.633Z,101002.22
2018-05-03T04:36:22.901Z,101004.48
2018-05-03T04:38:53.683Z,101001.44
2018-05-03T04:41:24.303Z,101003.33
2018-05-03T04:43:54.985Z,101000.01
2018-05-03T04:46:27.066Z,101008.74
2018-05-03T04:48:57.356Z,101021.38
2018-05-03T04:51:27.789Z,101027.49
2018-05-03T04:53:58.451Z,101029.36
2018-05-03T04:56:30.677Z,101046.97
2018-05-03T04:59:01.632Z,101045.33
2018-05-03T05:01:32.860Z,101047.23
2018-05-03T05:04:03.477Z,101053.24
2018-05-03T05:06:34.106Z,101063.89
2018-05-03T05:09:05.577Z,101062.83
2018-05-03T05:11:36.096Z,101064.88
2018-05-03T05:14:07.148Z,101070.91
2018-05-03T05:16:40.842Z,101070.27
2018-05-03T05:19:34.866Z,101078.00
2018-05-03T05:22:23.627Z,101083.27
2018-05-03T05:25:02.277Z,101093.78
2018-05-03T05:27:33.633Z,101096.95
2018-05-03T05:30:06.960Z,101098.06
2018-05-03T05:32:38.346Z,101109.41
2018-05-03T05:35:08.644Z,101105.22
2018-05-03T05:37:39.144Z,101112.97
2018-05-03T05:40:09.800Z,101113.82
2018-05-03T05:42:40.889Z,101120.77
2018-05-03T05:45:16.750Z,101123.73
2018-05-03T05:47:47.316Z,101127.77
2018-05-03T05:50:18.277Z,101134.92
2018-05-03T05:52:48.743Z,101134.91
2018-05-03T05:55:19.185Z,101138.03
2018-05-03T05:57:49.448Z,101135.27
2018-05-03T06:00:21.349Z,101135.06
2018-05-03T06:02:51.740Z,101144.05
2018-05-03T06:05:22.240Z,101142.46
2018-05-03T06:07:53.717Z,101147.62
2018-05-03T06:10:25.317Z,101152.37
2018-05-03T06:12:55.898Z,101141.61
2018-05-03T06:15:27.750Z,101149.83
2018-05-03T06:17:58.770Z,101155.04
2018-05-03T06:20:29.567Z,101165.75
2018-05-03T06:23:00.070Z,101156.22
2018-05-03T06:25:31.405Z,101156.65
2018-05-03T06:28:02.036Z,101170.02
2018-05-03T06:30:32.563Z,101185.39
2018-05-03T06:33:03.749Z,101199.25
2018-05-03T06:35:36.301Z,101179.47
2018-05-03T06:38:13.325Z,101190.98
2018-05-03T06:40:43.716Z,101193.30
2018-05-03T06:43:14.386Z,101195.14
2018-05-03T06:45:46.854Z,101194.98
2018-05-03T06:48:20.025Z,101178.69
2018-05-03T06:50:50.337Z,101157.74
2018-05-03T06:53:23.526Z,101210.28
2018-05-03T06:55:56.703Z,101196.34
2018-05-03T06:58:30.023Z,101196.63
2018-05-03T07:01:03.520Z,101194.06
2018-05-03T07:03:34.727Z,101208.28
2018-05-03T07:06:05.562Z,101194.55
2018-05-03T07:08:36.042Z,101211.68
2018-05-03T07:11:07.417Z,101213.65
2018-05-03T07:13:37.744Z,101213.05
2018-05-03T07:16:08.683Z,101201.23
2018-05-03T07:18:38.976Z,101222.88
2018-05-03T07:21:09.674Z,101214.19
2018-05-03T07:23:40.057Z,101211.38
2018-05-03T07:26:10.274Z,101223.64
2018-05-03T07:28:41.402Z,101225.06
2018-05-03T07:31:12.668Z,101214.01
2018-05-03T07:33:43.258Z,101230.96
2018-05-03T07:36:13.695Z,101227.06
2018-05-03T07:38:53.240Z,101232.50
2018-05-03T07:41:23.985Z,101239.91
2018-05-03T07:44:07.066Z,101248.02
2018-05-03T07:46:38.971Z,101245.61
2018-05-03T07:49:11.829Z,101246.54
2018-05-03T07:51:43.763Z,101256.38
2018-05-03T07:54:18.412Z,101244.48
2018-05-03T07:56:49.510Z,101260.98
2018-05-03T07:59:20.239Z,101267.11
2018-05-03T08:01:52.101Z,101264.42
2018-05-03T08:04:23.505Z,101272.69
2018-05-03T08:06:55.232Z,101258.34
2018-05-03T08:09:25.662Z,101278.29
2018-05-03T08:11:56.414Z,101272.09
2018-05-03T08:14:29.572Z,101283.08
2018-05-03T08:17:00.964Z,101290.91
2018-05-03T08:19:33.175Z,101289.30
2018-05-03T08:22:06.243Z,101289.51
2018-05-03T08:27:12.536Z,101292.20
2018-05-03T08:29:44.791Z,101297.77
2018-05-03T08:32:16.393Z,101299.55
2018-05-03T08:34:48.074Z,101303.11
2018-05-03T08:37:20.563Z,101314.55
2018-05-03T08:39:50.955Z,101313.55
2018-05-03T08:42:22.523Z,101319.03
2018-05-03T08:44:54.056Z,101320.83
2018-05-03T08:47:30.080Z,101323.89
2018-05-03T08:50:00.788Z,101332.74
2018-05-03T08:52:31.478Z,101330.30
2018-05-03T08:55:02.824Z,101331.59
2018-05-03T08:57:33.805Z,101340.83
2018-05-03T09:00:08.219Z,101338.64
2018-05-03T09:05:39.142Z,101334.25
2018-05-03T09:08:09.906Z,101341.52
2018-05-03T09:10:40.892Z,101343.83
2018-05-03T09:18:51.612Z,101339.54
2018-05-03T09:21:25.820Z,101322.33
2018-05-03T09:23:57.825Z,101333.05
2018-05-03T09:26:33.134Z,101340.79
2018-05-03T09:29:04.238Z,101345.50
2018-05-03T09:31:35.201Z,101339.18
2018-05-03T09:34:06.449Z,101348.14
2018-05-03T09:36:38.469Z,101354.28
2018-05-03T09:39:08.895Z,101358.17
2018-05-03T09:41:39.202Z,101356.34
2018-05-03T09:44:09.883Z,101354.26
2018-05-03T09:46:41.031Z,101348.39
2018-05-03T09:49:34.906Z,101353.26
2018-05-03T09:52:09.340Z,101350.02
2018-05-03T09:54:46.874Z,101352.22
2018-05-03T09:57:19.913Z,101346.76
2018-05-03T09:59:51.586Z,101354.09
2018-05-03T10:02:26.903Z,101318.45
2018-05-03T10:04:57.666Z,101364.40
2018-05-03T10:07:28.110Z,101359.47
2018-05-03T10:15:59.269Z,101348.98
2018-05-03T10:18:29.495Z,101364.47
2018-05-03T10:21:00.442Z,101363.70
2018-05-03T10:23:32.546Z,101361.15
2018-05-03T10:26:04.298Z,101365.85
2018-05-03T10:28:37.308Z,101368.39
2018-05-03T10:31:08.898Z,101373.28
2018-05-03T10:33:40.746Z,101369.20
2018-05-03T10:36:12.901Z,101367.61
2018-05-03T10:38:43.614Z,101369.61
2018-05-03T10:41:17.071Z,101364.50
2018-05-03T10:43:52.774Z,101365.22
2018-05-03T10:46:24.364Z,101370.44
2018-05-03T10:48:55.050Z,101364.83
2018-05-03T10:54:01.799Z,101350.88
2018-05-03T10:56:34.063Z,101354.12
2018-05-03T10:59:04.644Z,101352.15
2018-05-03T11:01:35.300Z,101363.98
2018-05-03T11:04:08.346Z,101351.77
2018-05-03T11:06:40.353Z,101355.27
2018-05-03T11:09:11.015Z,101360.74
2018-05-03T11:11:49.336Z,101362.31
2018-05-03T11:14:23.673Z,101359.70
2018-05-03T11:16:58.535Z,101356.52
2018-05-03T11:19:31.156Z,101357.72
2018-05-03T11:22:37.844Z,101355.91
2018-05-03T11:25:09.219Z,101353.75
2018-05-03T11:27:41.102Z,101367.53
2018-05-03T11:30:16.213Z,101367.62
2018-05-03T11:32:47.911Z,101361.51
2018-05-03T11:35:22.413Z,101355.87
2018-05-03T11:38:02.548Z,101348.66
2018-05-03T11:40:34.641Z,101359.16
2018-05-03T11:43:17.810Z,101348.14
2018-05-03T11:46:03.570Z,101362.50
2018-05-03T11:51:05.820Z,101359.45
2018-05-03T11:53:39.683Z,101363.42
2018-05-03T11:56:11.262Z,101364.27
2018-05-03T11:58:41.856Z,101361.25
2018-05-03T12:01:14.294Z,101355.73
2018-05-03T12:03:47.121Z,101369.90
2018-05-03T12:06:18.041Z,101369.34
2018-05-03T12:08:52.101Z,101368.97
2018-05-03T12:11:25.412Z,101375.28
2018-05-03T12:13:59.003Z,101373.05
2018-05-03T12:16:30.751Z,101376.01
2018-05-03T12:19:01.119Z,101383.22
2018-05-03T12:21:33.859Z,101382.34
2018-05-03T12:24:13.549Z,101375.32
2018-05-03T12:26:52.341Z,101382.91
2018-05-03T12:29:22.599Z,101387.09
2018-05-03T12:31:57.625Z,101378.84
2018-05-03T12:34:28.699Z,101394.63
2018-05-03T12:37:00.653Z,101390.97
2018-05-03T12:39:32.653Z,101390.49
2018-05-03T12:42:03.725Z,101385.13
2018-05-03T12:44:34.445Z,101391.39
2018-05-03T12:47:05.806Z,101400.71
2018-05-03T12:49:38.302Z,101397.88
2018-05-03T12:52:09.370Z,101390.63
2018-05-03T12:54:40.685Z,101391.31
2018-05-03T12:57:11.193Z,101383.95
2018-05-03T12:59:41.380Z,101385.97
2018-05-03T13:02:12.966Z,101385.69
2018-05-03T13:04:45.522Z,101385.03
2018-05-03T13:07:16.559Z,101381.14
2018-05-03T13:09:47.718Z,101377.56
2018-05-03T13:12:18.804Z,101393.46
2018-05-03T13:14:52.704Z,101386.84
2018-05-03T13:17:26.526Z,101382.52
2018-05-03T13:19:57.458Z,101385.97
2018-05-03T13:22:30.711Z,101382.81
2018-05-03T13:27:50.619Z,101380.79
2018-05-03T13:30:24.781Z,101375.67
2018-05-03T13:32:55.221Z,101377.25
2018-05-03T13:35:27.043Z,101381.70
2018-05-03T13:37:57.765Z,101376.36
2018-05-03T13:40:28.126Z,101369.09
2018-05-03T13:42:58.745Z,101366.20
2018-05-03T13:45:29.681Z,101372.56
2018-05-03T13:48:00.497Z,101374.91
2018-05-03T13:50:31.577Z,101377.50
2018-05-03T13:53:03.315Z,101383.27
2018-05-03T13:55:33.767Z,101377.53
2018-05-03T13:58:04.755Z,101366.23
2018-05-03T14:00:35.967Z,101370.23
2018-05-03T14:03:06.683Z,101375.00
2018-05-03T14:05:37.765Z,101371.11
2018-05-03T14:08:08.036Z,101372.98
2018-05-03T14:10:40.533Z,101368.13
2018-05-03T14:13:13.060Z,101375.74
2018-05-03T14:15:44.154Z,101363.13
2018-05-03T14:18:14.445Z,101376.63
2018-05-03T14:20:45.683Z,101367.30
2018-05-03T14:23:18.958Z,101371.25
2018-05-03T14:25:50.279Z,101369.63
2018-05-03T14:28:23.671Z,101364.64
2018-05-03T14:30:54.797Z,101359.54
2018-05-03T14:33:25.425Z,101358.47
2018-05-03T14:35:55.729Z,101357.80
2018-05-03T14:38:26.642Z,101363.64
2018-05-03T14:40:56.969Z,101364.31
2018-05-03T14:43:27.995Z,101364.89
2018-05-03T14:45:58.405Z,101366.52
2018-05-03T14:48:30.448Z,101367.95
2018-05-03T14:51:04.744Z,101360.62
2018-05-03T14:56:41.643Z,101353.05
2018-05-03T14:59:12.920Z,101355.94
2018-05-03T15:01:44.345Z,101361.50
2018-05-03T15:04:15.452Z,101372.84
2018-05-03T15:06:49.623Z,101371.21
2018-05-03T15:20:23.948Z,101370.95
2018-05-03T15:22:54.294Z,101372.08
2018-05-03T15:25:32.631Z,101359.15
2018-05-03T15:28:17.337Z,101360.24
2018-05-03T15:30:53.758Z,101357.74
2018-05-03T15:33:34.987Z,101373.97
2018-05-03T15:36:05.790Z,101369.06
2018-05-03T15:38:50.495Z,101371.69
2018-05-03T15:41:27.341Z,101366.92
2018-05-03T15:43:59.547Z,101355.23
2018-05-03T15:46:31.112Z,101364.70
2018-05-03T15:49:04.700Z,101358.26
2018-05-03T15:51:50.073Z,101367.75
2018-05-03T15:54:31.244Z,101366.28
2018-05-03T15:57:08.541Z,101367.16
2018-05-03T15:59:55.308Z,101362.23
2018-05-03T16:02:29.832Z,101358.26
2018-05-03T16:05:06.921Z,101363.33
2018-05-03T16:07:38.213Z,101375.13
2018-05-03T16:10:12.587Z,101372.63
2018-05-03T16:12:45.098Z,101373.48
2018-05-03T16:15:22.292Z,101383.03
2018-05-03T16:17:54.001Z,101379.94
2018-05-03T16:20:24.198Z,101379.94
2018-05-03T16:22:55.052Z,101372.88
2018-05-03T16:25:28.545Z,101375.81
2018-05-03T16:27:59.356Z,101374.50
2018-05-03T16:30:31.125Z,101376.59
2018-05-03T16:33:01.827Z,101380.02
2018-05-03T16:35:32.556Z,101382.05
2018-05-03T16:38:10.676Z,101377.31
2018-05-03T16:40:48.166Z,101377.30
2018-05-03T16:43:30.498Z,101371.70
2018-05-03T16:46:03.805Z,101384.49
2018-05-03T16:48:50.574Z,101372.44
2018-05-03T16:51:24.408Z,101383.24
2018-05-03T16:53:55.582Z,101391.23
2018-05-03T16:56:26.588Z,101393.63
2018-05-03T16:58:57.315Z,101389.40
2018-05-03T17:01:28.341Z,101391.84
2018-05-03T17:03:58.935Z,101389.76
2018-05-03T17:06:31.274Z,101389.00
2018-05-03T17:09:11.865Z,101398.35
2018-05-03T17:11:44.168Z,101394.77
2018-05-03T17:14:20.205Z,101399.38
2018-05-03T17:16:59.430Z,101405.80
2018-05-03T17:19:36.946Z,101411.55
2018-05-03T17:22:15.465Z,101375.03
2018-05-03T17:25:01.177Z,101394.14
2018-05-03T17:27:48.012Z,101409.76
2018-05-03T17:30:56.589Z,101416.67
2018-05-03T17:33:29.318Z,101419.63
2018-05-03T17:36:00.575Z,101413.28
2018-05-03T17:38:31.351Z,101416.14
2018-05-03T17:41:03.931Z,101422.06
2018-05-03T17:43:36.989Z,101415.59
2018-05-03T17:46:14.646Z,101421.45
2018-05-03T17:48:46.325Z,101408.76
2018-05-03T17:51:17.260Z,101431.98
2018-05-03T17:53:48.963Z,101438.25
2018-05-03T17:56:19.812Z,101438.72
2018-05-03T17:58:54.631Z,101396.55
2018-05-03T18:01:30.418Z,101437.58
2018-05-03T18:04:03.632Z,101442.41
2018-05-03T18:06:35.205Z,101446.79
2018-05-03T18:09:15.201Z,101451.50
2018-05-03T18:11:46.439Z,101455.06
2018-05-03T18:14:16.984Z,101455.88
2018-05-03T18:16:52.522Z,101457.40
2018-05-03T18:19:24.258Z,101459.20
2018-05-03T18:26:51.593Z,101478.33
2018-05-03T18:29:23.149Z,101481.88
2018-05-03T18:31:56.799Z,101479.07
2018-05-03T18:34:31.889Z,101481.13
2018-05-03T18:37:04.719Z,101482.20
2018-05-03T18:39:36.452Z,101497.87
2018-05-03T18:42:10.918Z,101495.53
2018-05-03T18:44:41.611Z,101497.45
2018-05-03T18:47:12.212Z,101500.84
2018-05-03T18:49:43.929Z,101503.53
2018-05-03T18:52:14.700Z,101507.50
2018-05-03T18:54:48.487Z,101508.58
2018-05-03T18:57:20.933Z,101517.34
2018-05-03T18:59:52.074Z,101531.68
2018-05-03T19:02:23.375Z,101531.49
2018-05-03T19:04:54.062Z,101533.18
2018-05-03T19:07:24.880Z,101536.91
2018-05-03T19:09:57.148Z,101547.44
2018-05-03T19:12:31.501Z,101542.54
2018-05-03T19:15:04.803Z,101530.39
2018-05-03T19:17:36.894Z,101542.02
2018-05-03T19:20:07.865Z,101543.86
2018-05-03T19:22:39.164Z,101555.99
2018-05-03T19:25:10.433Z,101553.30
2018-05-03T19:27:42.357Z,101564.32
2018-05-03T19:30:28.239Z,101564.66
2018-05-03T19:32:59.260Z,101567.28
2018-05-03T19:35:29.667Z,101582.43
2018-05-03T19:38:00.293Z,101578.83
2018-05-03T19:40:31.292Z,101594.05
2018-05-03T19:43:05.841Z,101589.45
2018-05-03T19:45:36.549Z,101588.72
2018-05-03T19:48:06.998Z,101585.51
2018-05-03T19:50:37.670Z,101588.68
2018-05-03T19:53:08.419Z,101586.66
2018-05-03T19:55:39.853Z,101583.98
2018-05-03T19:58:11.446Z,101586.08
2018-05-03T20:00:43.905Z,101589.87
2018-05-03T20:03:14.224Z,101592.44
2018-05-03T20:05:46.439Z,101588.33
2018-05-03T20:08:18.853Z,101599.28
2018-05-03T20:10:54.675Z,101606.98
2018-05-03T20:13:25.312Z,101601.86
2018-05-03T20:15:55.842Z,101598.47
2018-05-03T20:18:26.933Z,101610.45
2018-05-03T20:20:57.382Z,101606.05
2018-05-03T20:23:28.001Z,101609.17
2018-05-03T20:26:02.399Z,101614.97
2018-05-03T20:28:33.359Z,101611.83
2018-05-03T20:31:03.877Z,101623.60
2018-05-03T20:33:34.582Z,101609.45
2018-05-03T20:36:05.962Z,101625.45
2018-05-03T20:38:36.781Z,101618.48
2018-05-03T20:41:07.382Z,101615.44
2018-05-03T20:43:38.500Z,101613.78
2018-05-03T20:46:14.863Z,101613.88
2018-05-03T20:48:45.962Z,101607.91
2018-05-03T20:51:16.589Z,101606.39
2018-05-03T20:53:48.308Z,101611.47
2018-05-03T20:56:20.663Z,101612.30
2018-05-03T20:58:51.540Z,101619.98
2018-05-03T21:01:22.279Z,101624.27
2018-05-03T21:04:05.101Z,101624.50
2018-05-03T21:06:36.666Z,101621.62
2018-05-03T21:09:07.413Z,101627.20
2018-05-03T21:11:37.761Z,101626.23
2018-05-03T21:14:08.957Z,101622.66
2018-05-03T21:16:40.440Z,101618.52
2018-05-03T21:19:11.406Z,101614.02
2018-05-03T21:21:42.286Z,101625.14
2018-05-03T21:24:12.677Z,101616.75
2018-05-03T21:26:43.446Z,101616.05
2018-05-03T21:29:13.959Z,101612.69
2018-05-03T21:31:45.990Z,101622.99
2018-05-03T21:34:16.723Z,101619.58
2018-05-03T21:36:47.464Z,101612.89
2018-05-03T21:39:18.760Z,101618.05
2018-05-03T21:41:49.266Z,101619.41
2018-05-03T21:44:19.498Z,101623.27
2018-05-03T21:46:51.322Z,101627.52
2018-05-03T21:49:22.530Z,101623.14
2018-05-03T21:54:38.215Z,101642.14
2018-05-03T21:57:08.947Z,101635.38
2018-05-03T21:59:39.908Z,101646.52
2018-05-03T22:02:10.611Z,101654.06
2018-05-03T22:04:41.299Z,101645.59
2018-05-03T22:07:11.569Z,101650.08
2018-05-03T22:09:43.223Z,101650.92
2018-05-03T22:12:13.897Z,101656.28
2018-05-03T22:14:44.361Z,101660.95
2018-05-03T22:17:14.944Z,101653.05
2018-05-03T22:19:45.785Z,101648.80
2018-05-03T22:22:16.145Z,101652.55
2018-05-03T22:24:46.625Z,101651.94
2018-05-03T22:27:17.457Z,101650.83
2018-05-03T22:29:47.690Z,101647.91
2018-05-03T22:32:19.625Z,101646.50
2018-05-03T22:34:50.744Z,101643.69
2018-05-03T22:37:21.117Z,101646.75
2018-05-03T22:39:52.186Z,101642.58
2018-05-03T22:42:25.275Z,101641.23
2018-05-03T22:44:55.485Z,101643.30
2018-05-03T22:47:26.281Z,101650.00
2018-05-03T22:49:58.789Z,101644.16
2018-05-03T22:52:29.284Z,101649.51
2018-05-03T22:54:59.976Z,101645.54
2018-05-03T22:57:30.808Z,101652.19
2018-05-03T23:00:01.440Z,101650.55
2018-05-03T23:02:32.681Z,101641.05
2018-05-03T23:05:03.434Z,101646.21
2018-05-03T23:07:34.117Z,101646.89
2018-05-03T23:10:04.734Z,101644.07
2018-05-03T23:12:34.953Z,101647.44
2018-05-03T23:15:07.316Z,101650.11
2018-05-03T23:17:38.346Z,101656.00
2018-05-03T23:20:08.691Z,101648.62
2018-05-03T23:22:39.015Z,101650.67
2018-05-03T23:25:10.191Z,101645.41
2018-05-03T23:27:40.605Z,101641.30
2018-05-03T23:30:14.434Z,101638.38
2018-05-03T23:32:46.216Z,101646.52
2018-05-03T23:35:17.334Z,101647.22
2018-05-03T23:37:47.990Z,101647.72
2018-05-03T23:40:18.188Z,101654.42
2018-05-03T23:42:49.106Z,101649.45
2018-05-03T23:45:19.720Z,101651.73
2018-05-03T23:47:57.133Z,101657.73
2018-05-03T23:50:28.534Z,101655.15
2018-05-03T23:52:59.546Z,101655.41
2018-05-03T23:55:30.242Z,101653.95
2018-05-03T23:58:01.479Z,101653.75
